Freeport, The Bahamas

10:23 AM EDT on September 03, 2015 (GMT -0400)
Grand Bahama International | | Change Station
CLOSE
Current Station
Airport
Location: Freeport,
Elevation: 36 ft
Nearby Weather Stations

Elev 36 ft 26.56 °N, 78.70 °W | Updated 23 minutes ago

Scattered Clouds
Scattered Clouds
88 °F
Feels Like 98 °F
N
4
Wind Variable Wind from WSW

Today
High -- | Low -- °F
--% Chance of Precip.
Yesterday
High -- | Low -- °F
Precip. -- in
6:55 AM 7:32 PM
Waning Gibbous, 70% visible
Pressure 29.98 in
Visibility 6.2 miles
Clouds Scattered Clouds 2000 ft
Heat Index 98 °F
Dew Point 75 °F
Humidity 66%
Rainfall 0.00 in
Snow Depth Not available.
UV 5 out of 12
Pollen Not available.
Air Quality Not available.
Flu Activity Not available.
METAR MYGF 031400Z 24003KT 9999 SCT020 31/24 A2998
Pressure 29.98 in
Visibility 6.2 miles
Clouds Scattered Clouds 2000 ft
Heat Index 98 °F
Dew Point 75 °F
Humidity 66%
Rainfall 0.00 in
Snow Depth Not available.
UV 5 out of 12
Pollen Not available.
Air Quality Not available.
Flu Activity Not available.
METAR MYGF 031400Z 24003KT 9999 SCT020 31/24 A2998

10-Day Weather Forecast

×

Almanac

Astronomy

Sep. 03, 2015 Rise Set
Actual Time
Civil Twilight
Nautical Twilight
Astronomical Twilight
Moon
Length of Visible Light
Length of Day
Tomorrow will be .
, % of the Moon is Illuminated

Today's Extremes

Country Highs Country Lows

Community

WunderPhotos

Upload Photos

1,851,959 photos uploaded!

WunderBlogs® & News

Nearby

Air Quality

  Air Quality AQ Index Pollutant
Not available.

Snow Depth

Station Depth Elevation

Earthquake Activity

City Distance Mag. Time & Date
Minimum magnitude displayed is 2.5.

Coastal Water Temperatures

Place Temperature

Stations

Nearby Weather Stations

Station Location Temp. Windchill Dew Point Humidity Wind Precip. Elev Updated Type